Time;durP1;ratioP1;P1;durP2;ratioP2;P2;SDS_P1;SDS_P2;PMS_P1;PMS_P2;Temp;Humidity;BMP_temperature;BMP_pressure;BME280_temperature;BME280_humidity;BME280_pressure;Samples;Min_cycle;Max_cycle;Signal;HPM_P1;HPM_P2
2021/04/11 00:00:52;;;;;;;1.10;1.00;;;6.70;99.90;;;;;;2064507;28;20594;-67
2021/04/11 00:01:53;;;;;;;1.73;1.30;;;6.60;99.90;;;;;;2064181;28;20202;-68
2021/04/11 00:02:55;;;;;;;3.70;1.30;;;6.60;99.90;;;;;;2064346;28;20190;-67
2021/04/11 00:03:56;;;;;;;1.95;1.13;;;6.60;99.90;;;;;;2064464;28;20550;-67
2021/04/11 00:04:57;;;;;;;3.22;1.48;;;6.60;99.90;;;;;;2064418;28;20216;-67
2021/04/11 00:05:58;;;;;;;1.50;1.40;;;6.60;99.90;;;;;;2064501;28;20281;-67
2021/04/11 00:06:58;;;;;;;1.88;1.10;;;6.60;99.90;;;;;;2064413;28;20192;-67
2021/04/11 00:08:00;;;;;;;1.83;1.07;;;6.60;99.90;;;;;;2064559;28;20212;-67
2021/04/11 00:09:00;;;;;;;1.58;1.33;;;6.60;99.90;;;;;;2064488;28;20189;-67
2021/04/11 00:10:02;;;;;;;1.47;1.07;;;6.70;99.90;;;;;;2064453;28;20175;-67
2021/04/11 00:11:04;;;;;;;1.40;1.30;;;6.70;99.90;;;;;;2055690;28;20179;-67
2021/04/11 00:12:05;;;;;;;1.38;1.10;;;6.70;99.90;;;;;;2055688;28;20214;-67
2021/04/11 00:13:17;;;;;;;3.63;1.25;;;6.70;99.90;;;;;;2064374;28;20188;-67
2021/04/11 00:14:18;;;;;;;1.95;1.15;;;6.70;99.90;;;;;;2064585;28;20534;-67
2021/04/11 00:15:19;;;;;;;1.17;1.07;;;6.80;99.90;;;;;;2064476;28;20197;-67
2021/04/11 00:16:21;;;;;;;1.42;1.13;;;6.70;99.90;;;;;;2055884;28;20649;-67
2021/04/11 00:17:21;;;;;;;1.63;1.20;;;6.70;99.90;;;;;;2056005;28;20205;-67
2021/04/11 00:18:22;;;;;;;2.93;1.20;;;6.80;99.90;;;;;;2055876;28;20266;-67
2021/04/11 00:19:23;;;;;;;1.23;1.03;;;6.70;99.90;;;;;;2055857;28;20832;-67
2021/04/11 00:20:24;;;;;;;1.30;1.07;;;6.80;99.90;;;;;;2064567;28;20181;-67
2021/04/11 00:21:25;;;;;;;1.40;1.15;;;6.80;99.90;;;;;;2064029;28;20183;-67
2021/04/11 00:22:26;;;;;;;2.03;1.70;;;6.80;99.90;;;;;;2064494;28;20695;-67
2021/04/11 00:23:27;;;;;;;2.73;1.43;;;6.80;99.90;;;;;;2057179;28;20186;-67
2021/04/11 00:24:27;;;;;;;1.65;1.02;;;6.80;99.90;;;;;;2057343;28;20178;-67
2021/04/11 00:25:33;;;;;;;2.20;1.47;;;6.90;99.90;;;;;;2065858;28;20200;-67
2021/04/11 00:26:33;;;;;;;2.45;1.40;;;6.80;99.90;;;;;;2065899;28;20165;-67
2021/04/11 00:27:34;;;;;;;2.30;1.03;;;6.80;99.90;;;;;;2065765;28;20177;-67
2021/04/11 00:28:35;;;;;;;1.80;1.33;;;6.80;99.90;;;;;;2065938;28;20186;-67
2021/04/11 00:29:35;;;;;;;2.03;1.23;;;6.80;99.90;;;;;;2065858;28;20177;-67
2021/04/11 00:30:37;;;;;;;2.53;1.40;;;6.80;99.90;;;;;;2065926;28;20173;-67
2021/04/11 00:31:38;;;;;;;2.35;1.42;;;6.80;99.90;;;;;;2065516;28;20326;-67
2021/04/11 00:32:40;;;;;;;1.55;1.08;;;6.80;99.90;;;;;;2065820;28;20722;-67
2021/04/11 00:33:45;;;;;;;1.58;1.10;;;6.80;99.90;;;;;;2065660;28;20193;-67
2021/04/11 00:34:45;;;;;;;2.28;1.30;;;6.80;99.90;;;;;;2057150;28;20187;-67
2021/04/11 00:35:46;;;;;;;1.37;1.20;;;6.80;99.90;;;;;;2057525;28;20186;-67
2021/04/11 00:36:49;;;;;;;1.53;1.30;;;6.80;99.90;;;;;;2065874;28;20178;-67
2021/04/11 00:37:50;;;;;;;2.35;1.38;;;6.80;99.90;;;;;;2065663;28;20182;-67
2021/04/11 00:38:50;;;;;;;1.93;1.20;;;6.70;99.90;;;;;;2065789;28;20182;-67
2021/04/11 00:39:51;;;;;;;2.77;1.40;;;6.70;99.90;;;;;;2065642;28;20190;-67
2021/04/11 00:40:52;;;;;;;1.60;1.10;;;6.80;99.90;;;;;;2065795;28;20185;-67
2021/04/11 00:42:00;;;;;;;1.67;1.40;;;6.70;99.90;;;;;;2064598;28;20221;-67
2021/04/11 00:43:07;;;;;;;2.00;1.40;;;6.70;99.90;;;;;;2057145;28;20190;-67
2021/04/11 00:44:08;;;;;;;1.63;1.35;;;6.70;99.90;;;;;;2057958;28;20182;-68
2021/04/11 00:45:27;;;;;;;3.90;1.27;;;6.70;99.90;;;;;;2097164;23;20242;-68
2021/04/11 00:46:53;;;;;;;1.98;1.42;;;6.60;99.90;;;;;;2100538;28;20170;-67
2021/04/11 00:47:55;;;;;;;2.20;1.30;;;6.50;99.90;;;;;;2097923;28;20171;-66
2021/04/11 00:48:56;;;;;;;2.08;1.40;;;6.50;99.90;;;;;;2089753;28;20670;-66
2021/04/11 00:49:57;;;;;;;2.30;1.30;;;6.40;99.90;;;;;;2098185;28;20183;-66
2021/04/11 00:51:14;;;;;;;1.60;1.30;;;6.40;99.90;;;;;;2097962;28;20188;-68
2021/04/11 00:52:17;;;;;;;2.90;1.60;;;6.40;99.90;;;;;;2091980;28;20183;-66
2021/04/11 00:53:18;;;;;;;2.00;1.48;;;6.40;99.90;;;;;;2097594;28;20555;-65
2021/04/11 00:54:19;;;;;;;1.37;1.27;;;6.30;99.90;;;;;;2097632;28;20196;-65
2021/04/11 00:55:23;;;;;;;2.58;1.27;;;6.30;99.90;;;;;;2089214;28;20536;-66
2021/04/11 00:56:24;;;;;;;1.92;1.40;;;6.30;99.90;;;;;;2089503;28;20245;-66
2021/04/11 00:57:25;;;;;;;2.40;1.38;;;6.30;99.90;;;;;;2089398;28;20276;-65
2021/04/11 00:58:27;;;;;;;1.58;1.20;;;6.30;99.90;;;;;;2081228;28;20188;-66
2021/04/11 00:59:28;;;;;;;1.48;1.10;;;6.30;99.90;;;;;;2081222;28;20551;-67
2021/04/11 01:00:33;;;;;;;2.42;1.35;;;6.30;99.90;;;;;;2089520;28;20673;-67
2021/04/11 01:01:37;;;;;;;1.75;1.48;;;6.30;99.90;;;;;;2097403;28;20163;-66
2021/04/11 01:02:40;;;;;;;1.83;1.70;;;6.30;99.90;;;;;;2097342;28;20260;-66
2021/04/11 01:03:41;;;;;;;3.88;1.70;;;6.30;99.90;;;;;;2089330;28;20211;-66
2021/04/11 01:04:41;;;;;;;3.67;1.98;;;6.30;99.90;;;;;;2089433;28;20693;-67
2021/04/11 01:05:43;;;;;;;2.33;1.77;;;6.30;99.90;;;;;;2089912;28;20225;-67
2021/04/11 01:06:52;;;;;;;3.30;1.98;;;6.30;99.90;;;;;;2089402;28;20240;-67
2021/04/11 01:07:55;;;;;;;3.22;2.00;;;6.20;99.90;;;;;;2082231;28;20198;-66
2021/04/11 01:08:56;;;;;;;3.05;2.00;;;6.20;99.90;;;;;;2081330;28;20176;-66
2021/04/11 01:09:58;;;;;;;3.05;1.83;;;6.20;99.90;;;;;;2081158;28;20184;-66
2021/04/11 01:11:13;;;;;;;3.58;2.15;;;6.20;99.90;;;;;;2089338;28;20173;-66
2021/04/11 01:12:20;;;;;;;2.05;1.85;;;6.20;99.90;;;;;;2083938;28;20195;-66
2021/04/11 01:13:22;;;;;;;2.92;2.08;;;6.20;99.90;;;;;;2081099;28;20191;-66
2021/04/11 01:14:23;;;;;;;3.03;2.03;;;6.20;99.90;;;;;;2080914;28;20190;-66
2021/04/11 01:15:32;;;;;;;2.92;2.05;;;6.10;99.90;;;;;;2081605;28;20762;-67
2021/04/11 01:16:36;;;;;;;5.45;2.10;;;6.10;99.90;;;;;;2081137;28;20244;-66
2021/04/11 01:17:36;;;;;;;3.60;2.13;;;6.10;99.90;;;;;;2073378;28;20192;-66
2021/04/11 01:18:39;;;;;;;2.93;2.30;;;6.10;99.90;;;;;;2080968;28;20670;-67
2021/04/11 01:19:41;;;;;;;4.40;2.10;;;6.00;99.90;;;;;;2080991;28;20682;-66
2021/04/11 01:20:42;;;;;;;4.10;2.58;;;6.00;99.90;;;;;;2073074;28;20715;-65
2021/04/11 01:22:16;;;;;;;4.57;2.28;;;6.00;99.90;;;;;;2080636;28;20775;-67
2021/04/11 01:23:52;;;;;;;2.63;2.03;;;6.00;99.90;;;;;;2081736;28;20583;-66
2021/04/11 01:25:03;;;;;;;2.60;1.98;;;5.90;99.90;;;;;;2080895;28;20267;-66
2021/04/11 01:26:04;;;;;;;5.53;2.00;;;5.90;99.90;;;;;;2081109;28;20167;-66
2021/04/11 01:27:11;;;;;;;3.10;2.13;;;5.90;99.90;;;;;;2080929;28;20187;-66
2021/04/11 01:28:23;;;;;;;4.40;3.03;;;5.90;99.90;;;;;;2073655;28;20267;-66
2021/04/11 01:29:24;;;;;;;5.30;3.83;;;5.90;99.90;;;;;;2074231;28;20727;-66
2021/04/11 01:30:32;;;;;;;5.57;4.33;;;5.90;99.90;;;;;;2081002;28;20183;-66
2021/04/11 01:31:34;;;;;;;7.47;6.35;;;5.80;99.90;;;;;;2080759;28;20570;-67
2021/04/11 01:32:34;;;;;;;8.77;7.15;;;5.80;99.90;;;;;;2072799;28;20183;-65
2021/04/11 01:33:42;;;;;;;12.00;8.70;;;5.80;99.90;;;;;;2080932;28;20203;-66
2021/04/11 01:34:43;;;;;;;8.85;7.57;;;5.80;99.90;;;;;;2080469;28;20635;-65
2021/04/11 01:35:46;;;;;;;10.68;7.43;;;5.80;99.90;;;;;;2080759;28;20186;-65
2021/04/11 01:36:49;;;;;;;10.32;7.20;;;5.70;99.90;;;;;;2080891;28;20609;-66
2021/04/11 01:37:52;;;;;;;8.95;6.90;;;5.70;99.90;;;;;;2081102;28;20206;-67
2021/04/11 01:38:54;;;;;;;8.73;7.05;;;5.70;99.90;;;;;;2073231;28;20240;-65
2021/04/11 01:39:54;;;;;;;8.77;6.32;;;5.70;99.90;;;;;;2080878;28;20178;-66
2021/04/11 01:41:08;;;;;;;8.57;6.83;;;5.70;99.90;;;;;;2072685;28;20174;-67
2021/04/11 01:42:11;;;;;;;10.27;6.80;;;5.70;99.90;;;;;;2074307;28;20199;-65
2021/04/11 01:43:13;;;;;;;9.07;6.85;;;5.60;99.90;;;;;;2072894;28;20237;-66
2021/04/11 01:44:22;;;;;;;9.07;7.28;;;5.60;99.90;;;;;;2080737;28;20189;-65
2021/04/11 01:45:24;;;;;;;10.98;8.93;;;5.60;99.90;;;;;;2080783;28;20298;-68
2021/04/11 01:46:25;;;;;;;11.88;9.15;;;5.60;99.90;;;;;;2081455;28;20206;-65
2021/04/11 01:47:26;;;;;;;10.38;8.30;;;5.50;99.90;;;;;;2081353;28;20306;-65
2021/04/11 01:48:30;;;;;;;11.17;9.77;;;5.50;99.90;;;;;;2081511;28;20744;-66
2021/04/11 01:49:31;;;;;;;10.52;8.35;;;5.50;99.90;;;;;;2080794;28;20202;-65
2021/04/11 01:50:33;;;;;;;8.37;6.90;;;5.50;99.90;;;;;;2080885;28;20709;-66
2021/04/11 01:51:40;;;;;;;8.25;6.45;;;5.50;99.90;;;;;;2080474;28;20519;-66
2021/04/11 01:52:41;;;;;;;9.43;7.40;;;5.40;99.90;;;;;;2073587;28;20648;-65
2021/04/11 01:53:43;;;;;;;8.97;6.77;;;5.40;99.90;;;;;;2072640;28;20180;-66
2021/04/11 01:54:45;;;;;;;10.27;6.50;;;5.50;99.90;;;;;;2080779;28;20640;-66
2021/04/11 01:55:46;;;;;;;7.32;6.28;;;5.40;99.90;;;;;;2081328;28;20204;-67
2021/04/11 01:56:50;;;;;;;9.10;5.65;;;5.40;99.90;;;;;;2080923;28;20204;-65
2021/04/11 01:57:53;;;;;;;6.30;5.68;;;5.40;99.90;;;;;;2073108;28;20190;-64
2021/04/11 01:58:54;;;;;;;7.90;5.10;;;5.50;99.90;;;;;;2080977;28;20260;-65
2021/04/11 02:00:07;;;;;;;5.70;4.53;;;5.50;99.90;;;;;;2080801;28;20190;-66
2021/04/11 02:01:30;;;;;;;6.22;4.80;;;5.50;99.90;;;;;;2080866;28;20162;-66
2021/04/11 02:02:31;;;;;;;5.13;4.63;;;5.50;99.90;;;;;;2080702;28;20249;-65
2021/04/11 02:03:32;;;;;;;6.03;4.75;;;5.50;99.90;;;;;;2080928;28;20216;-67
2021/04/11 02:04:34;;;;;;;6.13;4.70;;;5.50;99.90;;;;;;2080753;28;20634;-66
2021/04/11 02:05:39;;;;;;;4.05;3.47;;;5.60;99.90;;;;;;2072727;28;20207;-64
2021/04/11 02:06:51;;;;;;;4.70;3.47;;;5.60;99.90;;;;;;2073234;28;20184;-65
2021/04/11 02:07:54;;;;;;;4.40;3.58;;;5.60;99.90;;;;;;2074160;28;20182;-66
2021/04/11 02:09:00;;;;;;;4.63;3.78;;;5.70;99.90;;;;;;2072935;28;20556;-65
2021/04/11 02:10:01;;;;;;;4.65;3.42;;;5.60;99.90;;;;;;2080922;28;20220;-65
2021/04/11 02:11:04;;;;;;;4.03;3.00;;;5.60;99.90;;;;;;2080717;28;20187;-65
2021/04/11 02:12:07;;;;;;;5.10;3.55;;;5.60;99.90;;;;;;2072884;28;20196;-65
2021/04/11 02:13:08;;;;;;;3.70;3.22;;;5.60;99.90;;;;;;2080603;28;20254;-65
2021/04/11 02:14:11;;;;;;;4.90;3.60;;;5.60;99.90;;;;;;2080720;28;20630;-65
2021/04/11 02:15:35;;;;;;;4.28;3.33;;;5.60;99.90;;;;;;2080418;28;20261;-65
2021/04/11 02:16:36;;;;;;;4.60;3.15;;;5.60;99.90;;;;;;2080762;28;20159;-67
2021/04/11 02:17:37;;;;;;;4.27;3.17;;;5.50;99.90;;;;;;2081174;28;20185;-66
2021/04/11 02:18:38;;;;;;;3.08;2.72;;;5.60;99.90;;;;;;2081054;28;20205;-66
2021/04/11 02:19:39;;;;;;;4.83;3.00;;;5.60;99.90;;;;;;2079057;28;20186;-66
2021/04/11 02:20:42;;;;;;;3.88;2.70;;;5.70;99.90;;;;;;2080301;28;20899;-67
2021/04/11 02:21:48;;;;;;;3.50;2.80;;;5.70;99.90;;;;;;2080821;28;20233;-65
2021/04/11 02:22:50;;;;;;;3.78;2.45;;;5.70;99.90;;;;;;2081219;28;20666;-67
2021/04/11 02:23:51;;;;;;;3.03;2.60;;;5.70;99.90;;;;;;2080402;28;20187;-65
2021/04/11 02:24:52;;;;;;;2.90;2.60;;;5.80;99.90;;;;;;2080373;28;20184;-65
2021/04/11 02:25:54;;;;;;;3.55;2.60;;;5.80;99.90;;;;;;2080513;28;20176;-65
2021/04/11 02:26:55;;;;;;;3.00;2.70;;;5.80;99.90;;;;;;2080552;28;20178;-65
2021/04/11 02:27:57;;;;;;;3.20;2.40;;;5.80;99.90;;;;;;2080490;28;20178;-66
2021/04/11 02:29:03;;;;;;;3.10;2.42;;;5.80;99.90;;;;;;2072157;28;20185;-65
2021/04/11 02:30:11;;;;;;;2.40;2.17;;;5.90;99.90;;;;;;2080463;28;20169;-65
2021/04/11 02:31:19;;;;;;;3.88;2.10;;;5.90;99.90;;;;;;2079750;28;20256;-65
2021/04/11 02:32:21;;;;;;;2.60;2.00;;;5.90;99.90;;;;;;2073095;28;20171;-67
2021/04/11 02:33:23;;;;;;;3.13;2.15;;;5.90;99.90;;;;;;2072422;28;20216;-66
2021/04/11 02:34:30;;;;;;;3.25;1.60;;;5.90;99.90;;;;;;2080171;28;20676;-66
2021/04/11 02:35:31;;;;;;;4.32;1.50;;;6.00;99.90;;;;;;2073146;28;20210;-65
2021/04/11 02:36:39;;;;;;;2.57;1.30;;;6.10;99.90;;;;;;2072237;28;20202;-66
2021/04/11 02:37:44;;;;;;;2.35;1.83;;;6.10;99.90;;;;;;2073278;28;20168;-66
2021/04/11 02:38:47;;;;;;;2.65;1.73;;;6.10;99.90;;;;;;2080292;28;20189;-64
2021/04/11 02:39:49;;;;;;;5.53;2.05;;;6.20;99.90;;;;;;2080327;28;20309;-66
2021/04/11 02:40:52;;;;;;;2.60;1.85;;;6.20;99.90;;;;;;2072321;28;20274;-65
2021/04/11 02:41:55;;;;;;;2.78;2.33;;;6.30;99.90;;;;;;2080215;28;20207;-65
2021/04/11 02:42:59;;;;;;;2.33;1.98;;;6.20;99.90;;;;;;2080282;28;20218;-65
2021/04/11 02:43:59;;;;;;;2.25;1.83;;;6.20;99.90;;;;;;2080396;28;20177;-65
2021/04/11 02:45:23;;;;;;;2.47;2.10;;;6.20;99.90;;;;;;2080661;28;20212;-67
2021/04/11 02:46:24;;;;;;;2.33;1.95;;;6.20;99.90;;;;;;2080279;28;20198;-66
2021/04/11 02:47:25;;;;;;;2.05;1.85;;;6.20;99.90;;;;;;2080226;28;20281;-66
2021/04/11 02:48:26;;;;;;;2.50;1.93;;;6.20;99.90;;;;;;2080344;28;20221;-65
2021/04/11 02:49:27;;;;;;;2.33;1.80;;;6.20;99.90;;;;;;2080285;28;20172;-65
2021/04/11 02:50:31;;;;;;;2.77;1.97;;;6.20;99.90;;;;;;2080242;28;20221;-65
2021/04/11 02:51:35;;;;;;;2.38;1.38;;;6.20;99.90;;;;;;2080630;28;20183;-66
2021/04/11 02:52:52;;;;;;;3.28;1.42;;;6.30;99.90;;;;;;2080943;28;20549;-66
2021/04/11 02:53:56;;;;;;;2.20;1.50;;;6.30;99.90;;;;;;2080238;28;20245;-65
2021/04/11 02:54:59;;;;;;;1.98;1.73;;;6.30;99.90;;;;;;2080291;28;20266;-65
2021/04/11 02:56:01;;;;;;;2.58;1.40;;;6.40;99.90;;;;;;2080210;28;20210;-66
2021/04/11 02:57:04;;;;;;;1.30;1.17;;;6.40;99.90;;;;;;2080390;28;20195;-66
2021/04/11 02:58:05;;;;;;;1.73;1.58;;;6.40;99.90;;;;;;2080151;28;20219;-66
2021/04/11 02:59:07;;;;;;;3.30;1.30;;;6.40;99.90;;;;;;2080342;28;20245;-65
2021/04/11 03:00:17;;;;;;;1.60;1.30;;;6.40;99.90;;;;;;2080771;28;20858;-67
2021/04/11 03:01:32;;;;;;;1.52;1.40;;;6.40;99.90;;;;;;2079915;28;20176;-66
2021/04/11 03:02:33;;;;;;;2.05;1.52;;;6.40;99.90;;;;;;2080340;28;20190;-65
2021/04/11 03:03:34;;;;;;;3.37;1.43;;;6.50;99.90;;;;;;2080215;28;20180;-66
2021/04/11 03:04:35;;;;;;;1.88;1.50;;;6.50;99.90;;;;;;2080942;28;20176;-65
2021/04/11 03:05:36;;;;;;;2.73;1.70;;;6.60;99.90;;;;;;2080737;28;20202;-67
2021/04/11 03:06:40;;;;;;;4.50;1.50;;;6.60;99.90;;;;;;2080252;28;20192;-65
2021/04/11 03:07:50;;;;;;;2.30;1.67;;;6.70;99.90;;;;;;2080211;28;20691;-66
2021/04/11 03:08:57;;;;;;;3.35;1.40;;;6.60;99.90;;;;;;2080276;28;20189;-65
2021/04/11 03:10:04;;;;;;;2.05;1.60;;;6.60;99.90;;;;;;2080168;28;20168;-66
2021/04/11 03:11:33;;;;;;;1.50;1.40;;;6.60;99.90;;;;;;2080250;28;20260;-65
2021/04/11 03:12:35;;;;;;;3.05;1.45;;;6.60;99.90;;;;;;2080161;28;20164;-66
2021/04/11 03:13:36;;;;;;;2.45;1.80;;;6.60;99.90;;;;;;2072182;28;20676;-68
2021/04/11 03:14:40;;;;;;;1.80;1.30;;;6.60;99.90;;;;;;2080112;28;20180;-65
2021/04/11 03:15:42;;;;;;;1.92;1.38;;;6.70;99.90;;;;;;2080196;28;20227;-66
2021/04/11 03:16:44;;;;;;;1.88;1.27;;;6.70;99.90;;;;;;2080052;28;20221;-66
2021/04/11 03:17:49;;;;;;;2.40;1.40;;;6.70;99.90;;;;;;2072193;28;20196;-67
2021/04/11 03:18:56;;;;;;;1.83;1.25;;;6.80;99.90;;;;;;2080064;28;20168;-68
2021/04/11 03:20:16;;;;;;;2.28;1.40;;;6.80;99.90;;;;;;2074823;28;20189;-66
2021/04/11 03:21:17;;;;;;;1.88;1.48;;;6.80;99.90;;;;;;2071727;28;20220;-66
2021/04/11 03:22:19;;;;;;;1.87;1.20;;;6.80;99.90;;;;;;2063628;28;20218;-67
2021/04/11 03:23:21;;;;;;;1.73;1.40;;;6.90;99.90;;;;;;2072084;28;20187;-65
2021/04/11 03:24:22;;;;;;;1.42;1.33;;;6.90;99.90;;;;;;2071886;28;20192;-66
2021/04/11 03:25:24;;;;;;;1.92;1.40;;;6.90;99.90;;;;;;2063882;28;20210;-68
2021/04/11 03:26:31;;;;;;;1.90;1.38;;;6.90;99.90;;;;;;2063997;28;20210;-65
2021/04/11 03:27:55;;;;;;;1.60;1.30;;;6.90;99.90;;;;;;2064719;28;20781;-67
2021/04/11 03:29:07;;;;;;;2.33;1.33;;;6.90;99.90;;;;;;2066735;28;20189;-66
2021/04/11 03:30:23;;;;;;;2.90;1.45;;;7.00;99.90;;;;;;2065428;28;20170;-66
2021/04/11 03:31:32;;;;;;;1.60;1.50;;;7.00;99.90;;;;;;2065833;28;20189;-66
2021/04/11 03:32:50;;;;;;;1.38;1.20;;;7.00;99.90;;;;;;2064928;28;20178;-66
2021/04/11 03:33:57;;;;;;;2.22;1.40;;;7.00;99.90;;;;;;2066273;28;20249;-66
2021/04/11 03:35:02;;;;;;;2.38;1.13;;;7.00;99.90;;;;;;2064613;28;20175;-65
2021/04/11 03:36:09;;;;;;;2.20;1.20;;;6.90;99.90;;;;;;2064587;28;20241;-66
2021/04/11 03:37:11;;;;;;;2.30;1.23;;;6.90;99.90;;;;;;2064757;28;20200;-66
2021/04/11 03:38:17;;;;;;;1.60;1.17;;;6.90;99.90;;;;;;2064024;28;20185;-67
2021/04/11 03:39:18;;;;;;;2.35;1.30;;;7.00;99.90;;;;;;2064544;28;20308;-65
2021/04/11 03:40:24;;;;;;;1.40;1.30;;;7.00;99.90;;;;;;2063930;28;20237;-67
2021/04/11 03:41:31;;;;;;;2.63;1.50;;;7.00;99.90;;;;;;2071605;28;20530;-65
2021/04/11 03:42:35;;;;;;;2.60;1.23;;;7.00;99.90;;;;;;2064699;28;20266;-65
2021/04/11 03:43:45;;;;;;;2.53;1.52;;;7.00;99.90;;;;;;2064247;28;20240;-65
2021/04/11 03:44:46;;;;;;;2.08;1.60;;;7.00;99.90;;;;;;2064859;28;20186;-66
2021/04/11 03:45:47;;;;;;;2.35;1.30;;;7.00;99.90;;;;;;2071955;28;20181;-67
2021/04/11 03:47:22;;;;;;;1.63;1.20;;;7.00;99.90;;;;;;2072074;28;20176;-65
2021/04/11 03:48:29;;;;;;;2.00;1.25;;;7.00;99.90;;;;;;2072719;28;20169;-66
2021/04/11 03:49:39;;;;;;;2.70;1.10;;;7.00;99.90;;;;;;2071912;28;20263;-65
2021/04/11 03:50:49;;;;;;;2.53;1.40;;;7.00;99.90;;;;;;2072180;28;20573;-65
2021/04/11 03:51:52;;;;;;;2.58;1.40;;;7.00;99.90;;;;;;2071703;28;20191;-65
2021/04/11 03:53:03;;;;;;;3.25;1.30;;;7.00;99.90;;;;;;2064168;28;20269;-66
2021/04/11 03:54:21;;;;;;;1.80;1.10;;;6.90;99.90;;;;;;2065085;28;20244;-65
2021/04/11 03:55:25;;;;;;;2.10;1.30;;;6.90;99.90;;;;;;2066220;28;20204;-65
2021/04/11 03:56:39;;;;;;;1.40;1.30;;;7.00;99.90;;;;;;2064247;28;20221;-65
2021/04/11 03:57:51;;;;;;;1.55;1.10;;;6.90;99.90;;;;;;2065738;28;20177;-65
2021/04/11 03:58:57;;;;;;;1.92;1.40;;;6.90;99.90;;;;;;2066873;28;20675;-65
2021/04/11 04:00:11;;;;;;;2.30;1.45;;;6.80;99.90;;;;;;2066831;28;20170;-65
2021/04/11 04:01:26;;;;;;;2.72;1.27;;;6.80;99.90;;;;;;2067167;28;20240;-66
2021/04/11 04:02:30;;;;;;;2.13;1.30;;;6.70;99.90;;;;;;2067130;28;20550;-66
2021/04/11 04:03:33;;;;;;;1.98;1.33;;;6.70;99.90;;;;;;2065791;28;20279;-67
2021/04/11 04:04:39;;;;;;;1.65;1.55;;;6.70;99.90;;;;;;2073333;28;20226;-65
2021/04/11 04:05:41;;;;;;;2.05;1.17;;;6.70;99.90;;;;;;2073505;28;20176;-66
2021/04/11 04:07:02;;;;;;;2.80;1.45;;;6.70;99.90;;;;;;2073382;28;20179;-65
2021/04/11 04:08:04;;;;;;;1.73;1.30;;;6.70;99.90;;;;;;2067911;28;20248;-65
2021/04/11 04:09:05;;;;;;;1.35;1.20;;;6.70;99.90;;;;;;2073511;28;20276;-66
2021/04/11 04:10:07;;;;;;;2.20;1.55;;;6.70;99.90;;;;;;2073960;28;20212;-66
2021/04/11 04:11:48;;;;;;;1.95;1.10;;;6.70;99.90;;;;;;2073782;28;20611;-66
2021/04/11 04:13:07;;;;;;;2.35;1.20;;;6.70;99.90;;;;;;2073939;28;20340;-66
2021/04/11 04:14:22;;;;;;;1.73;1.23;;;6.70;99.90;;;;;;2074021;28;20227;-66
2021/04/11 04:16:01;;;;;;;2.53;1.40;;;6.80;99.90;;;;;;2073315;28;20212;-66
2021/04/11 04:17:44;;;;;;;1.65;1.30;;;6.80;99.90;;;;;;2073734;28;20684;-65
2021/04/11 04:19:02;;;;;;;1.67;1.10;;;6.70;99.90;;;;;;2073406;28;20652;-66
2021/04/11 04:20:36;;;;;;;1.30;1.20;;;6.60;99.90;;;;;;2067667;28;20224;-65
2021/04/11 04:22:25;;;;;;;2.78;1.70;;;6.60;99.90;;;;;;2073317;28;20226;-67
2021/04/11 04:23:40;;;;;;;2.45;1.40;;;6.60;99.90;;;;;;2073315;28;20658;-66
2021/04/11 04:25:17;;;;;;;1.70;1.40;;;6.60;99.90;;;;;;2073322;28;20193;-66
2021/04/11 04:26:35;;;;;;;1.33;1.20;;;6.60;99.90;;;;;;2073279;28;20191;-65
2021/04/11 04:28:04;;;;;;;2.30;1.30;;;6.60;99.90;;;;;;2073410;28;20270;-67
2021/04/11 04:29:35;;;;;;;2.65;1.35;;;6.60;99.90;;;;;;2073281;28;20200;-66
2021/04/11 04:31:01;;;;;;;3.72;1.30;;;6.70;99.90;;;;;;2073653;28;20173;-67
2021/04/11 04:32:46;;;;;;;2.05;1.27;;;6.70;99.90;;;;;;2073712;28;20191;-65
2021/04/11 04:34:24;;;;;;;1.85;1.40;;;6.80;99.90;;;;;;2064548;28;20211;-67
2021/04/11 04:35:40;;;;;;;2.03;1.35;;;6.80;99.90;;;;;;2073761;28;20204;-67
2021/04/11 04:36:48;;;;;;;1.75;1.42;;;6.80;99.90;;;;;;2073806;28;20260;-67
2021/04/11 04:38:04;;;;;;;1.65;1.30;;;6.80;99.90;;;;;;2073033;28;20188;-65
2021/04/11 04:39:20;;;;;;;1.48;1.23;;;6.70;99.90;;;;;;2073560;28;20206;-66
2021/04/11 04:40:47;;;;;;;3.00;1.52;;;6.70;99.90;;;;;;2074109;28;20252;-66
2021/04/11 04:42:05;;;;;;;1.73;1.30;;;6.70;99.90;;;;;;2072861;28;20208;-66
2021/04/11 04:43:23;;;;;;;3.20;1.60;;;6.60;99.90;;;;;;2067348;28;20166;-66
2021/04/11 04:44:44;;;;;;;2.70;1.95;;;6.60;99.90;;;;;;2067500;28;20694;-66
2021/04/11 04:45:53;;;;;;;5.03;1.73;;;6.60;99.90;;;;;;2067627;28;20243;-67
2021/04/11 04:47:12;;;;;;;2.50;1.45;;;6.60;99.90;;;;;;2073239;28;20204;-66
2021/04/11 04:48:21;;;;;;;3.47;1.90;;;6.60;99.90;;;;;;2073661;28;20172;-67
2021/04/11 04:49:47;;;;;;;3.72;1.92;;;6.70;99.90;;;;;;2073749;28;20661;-64
2021/04/11 04:51:14;;;;;;;2.38;1.70;;;6.70;99.90;;;;;;2073157;28;20173;-65
2021/04/11 04:52:25;;;;;;;3.53;1.88;;;6.70;99.90;;;;;;2060357;28;20189;-68
2021/04/11 04:53:43;;;;;;;3.10;1.98;;;6.60;99.90;;;;;;2059610;28;20191;-67
2021/04/11 04:54:56;;;;;;;2.63;1.88;;;6.60;99.90;;;;;;2073037;28;20170;-67
2021/04/11 04:56:00;;;;;;;2.10;1.38;;;6.60;99.90;;;;;;2073048;28;20224;-66
2021/04/11 04:57:10;;;;;;;3.05;1.60;;;6.50;99.90;;;;;;2065602;28;20181;-66
2021/04/11 04:58:25;;;;;;;1.98;1.50;;;6.50;99.90;;;;;;2066117;28;20173;-68
2021/04/11 04:59:34;;;;;;;2.75;1.50;;;6.50;99.90;;;;;;2066885;28;20335;-67
2021/04/11 05:00:38;;;;;;;1.90;1.20;;;6.60;99.90;;;;;;2072957;28;20698;-67
2021/04/11 05:01:50;;;;;;;1.75;1.30;;;6.60;99.90;;;;;;2072831;28;20196;-68
2021/04/11 05:03:05;;;;;;;1.60;1.30;;;6.60;99.90;;;;;;2072975;28;20189;-65
2021/04/11 05:04:14;;;;;;;2.90;1.60;;;6.60;99.90;;;;;;2072988;28;20179;-66
2021/04/11 05:05:17;;;;;;;2.00;1.40;;;6.60;99.90;;;;;;2065956;28;20336;-68
2021/04/11 05:06:34;;;;;;;2.67;1.60;;;6.70;99.90;;;;;;2065115;28;20239;-67
2021/04/11 05:07:42;;;;;;;2.53;1.40;;;6.70;99.90;;;;;;2067082;28;20164;-66
2021/04/11 05:08:51;;;;;;;2.38;1.50;;;6.60;99.90;;;;;;2065782;28;20651;-66
2021/04/11 05:10:07;;;;;;;3.15;1.40;;;6.70;99.90;;;;;;2073060;28;20300;-67
2021/04/11 05:11:23;;;;;;;2.38;1.27;;;6.70;99.90;;;;;;2072866;28;20290;-67
2021/04/11 05:12:34;;;;;;;1.38;1.27;;;6.70;99.90;;;;;;2067154;28;20252;-67
2021/04/11 05:13:51;;;;;;;1.70;1.40;;;6.70;99.90;;;;;;2066171;28;20715;-67
2021/04/11 05:15:07;;;;;;;1.70;1.20;;;6.80;99.90;;;;;;2066965;28;20184;-66
2021/04/11 05:16:21;;;;;;;1.92;1.30;;;6.70;99.90;;;;;;2073021;28;20538;-68
2021/04/11 05:17:28;;;;;;;2.47;1.40;;;6.70;99.90;;;;;;2073054;28;20724;-67
2021/04/11 05:18:36;;;;;;;2.30;1.40;;;6.70;99.90;;;;;;2073023;28;20181;-66
2021/04/11 05:19:42;;;;;;;1.88;1.40;;;6.80;99.90;;;;;;2065946;28;20198;-66
2021/04/11 05:20:55;;;;;;;2.72;1.45;;;6.80;99.90;;;;;;2065612;28;20873;-68
2021/04/11 05:22:27;;;;;;;1.52;1.27;;;6.80;99.90;;;;;;2072845;28;20678;-66
2021/04/11 05:23:36;;;;;;;2.05;1.38;;;6.80;99.90;;;;;;2072924;28;20189;-65
2021/04/11 05:24:44;;;;;;;1.75;1.20;;;6.80;99.90;;;;;;2066187;28;20224;-67
2021/04/11 05:26:04;;;;;;;1.70;1.27;;;6.80;99.90;;;;;;2065760;28;20649;-66
2021/04/11 05:27:18;;;;;;;2.17;1.35;;;6.80;99.90;;;;;;2073197;28;20189;-67
2021/04/11 05:29:01;;;;;;;1.30;1.20;;;6.80;99.90;;;;;;2073083;28;20174;-66
2021/04/11 05:30:21;;;;;;;4.28;2.70;;;6.80;99.90;;;;;;2078543;28;20195;-66
2021/04/11 05:31:30;;;;;;;29.10;11.95;;;6.80;99.90;;;;;;2077586;28;20166;-69
2021/04/11 05:32:31;;;;;;;38.60;23.25;;;6.70;99.90;;;;;;2074078;28;20204;-66
2021/04/11 05:33:35;;;;;;;20.77;12.57;;;6.70;99.90;;;;;;2080952;28;20191;-69
2021/04/11 05:34:36;;;;;;;20.10;11.75;;;6.70;99.90;;;;;;2081727;28;20431;-67
2021/04/11 05:35:37;;;;;;;12.07;7.40;;;6.80;99.90;;;;;;2081540;28;20228;-65
2021/04/11 05:37:26;;;;;;;11.77;6.20;;;6.80;99.90;;;;;;2080993;28;20208;-66
2021/04/11 05:39:13;;;;;;;10.27;5.00;;;6.80;99.90;;;;;;2077949;28;20192;-66
2021/04/11 05:40:30;;;;;;;8.27;4.97;;;6.90;99.90;;;;;;2072083;28;20205;-67
2021/04/11 05:41:42;;;;;;;7.63;4.60;;;7.10;99.90;;;;;;2080645;28;20679;-66
2021/04/11 05:43:00;;;;;;;8.68;5.20;;;7.10;99.90;;;;;;2074424;28;20263;-65
2021/04/11 05:44:15;;;;;;;10.82;5.72;;;7.00;99.90;;;;;;2074998;28;20173;-66
2021/04/11 05:45:54;;;;;;;8.70;4.55;;;7.00;99.90;;;;;;2074504;28;20220;-67
2021/04/11 05:47:12;;;;;;;6.07;3.60;;;7.20;99.90;;;;;;2069835;28;20191;-66
2021/04/11 05:48:30;;;;;;;8.82;5.32;;;7.30;99.90;;;;;;2080766;28;20559;-65
2021/04/11 05:49:56;;;;;;;6.32;4.05;;;7.30;99.90;;;;;;2080954;28;20686;-65
2021/04/11 05:51:03;;;;;;;9.65;5.00;;;7.40;99.90;;;;;;2076010;28;20157;-66
2021/04/11 05:52:10;;;;;;;9.30;5.10;;;7.40;99.90;;;;;;2080554;28;20191;-66
2021/04/11 05:53:35;;;;;;;8.77;4.53;;;7.40;99.90;;;;;;2080860;28;20181;-66
2021/04/11 05:54:53;;;;;;;6.38;3.75;;;7.50;99.90;;;;;;2067173;28;20253;-68
2021/04/11 05:56:01;;;;;;;6.63;2.97;;;7.50;99.90;;;;;;2083239;28;20210;-65
2021/04/11 05:57:16;;;;;;;5.45;2.60;;;7.60;99.90;;;;;;2080838;28;20262;-67
2021/04/11 05:58:22;;;;;;;4.40;2.50;;;7.70;99.90;;;;;;2080832;28;20207;-66
2021/04/11 06:00:04;;;;;;;3.05;2.00;;;7.80;99.90;;;;;;2073362;28;20759;-66
2021/04/11 06:01:16;;;;;;;4.15;2.63;;;7.90;99.90;;;;;;2063753;28;20190;-66